sensor_id;sensor_type;location;lat;lon;timestamp;P1;durP1;ratioP1;P2;durP2;ratioP2
45388;SDS011;31127;52.078;4.370;2024-01-11T00:00:31;17.67;;;9.05;;
45388;SDS011;31127;52.078;4.370;2024-01-11T00:05:27;21.88;;;9.50;;
45388;SDS011;31127;52.078;4.370;2024-01-11T00:10:22;20.25;;;9.95;;
45388;SDS011;31127;52.078;4.370;2024-01-11T00:15:20;22.42;;;9.65;;
45388;SDS011;31127;52.078;4.370;2024-01-11T00:20:16;19.33;;;9.10;;
45388;SDS011;31127;52.078;4.370;2024-01-11T00:25:12;22.17;;;10.10;;
45388;SDS011;31127;52.078;4.370;2024-01-11T00:30:08;22.42;;;9.23;;
45388;SDS011;31127;52.078;4.370;2024-01-11T00:35:23;18.25;;;9.48;;
45388;SDS011;31127;52.078;4.370;2024-01-11T00:40:39;21.77;;;11.95;;
45388;SDS011;31127;52.078;4.370;2024-01-11T00:45:34;24.23;;;10.38;;
45388;SDS011;31127;52.078;4.370;2024-01-11T00:50:30;22.73;;;9.98;;
45388;SDS011;31127;52.078;4.370;2024-01-11T00:55:26;22.92;;;10.30;;
45388;SDS011;31127;52.078;4.370;2024-01-11T01:00:21;19.13;;;9.60;;
45388;SDS011;31127;52.078;4.370;2024-01-11T01:05:17;24.30;;;10.05;;
45388;SDS011;31127;52.078;4.370;2024-01-11T01:10:13;21.27;;;10.25;;
45388;SDS011;31127;52.078;4.370;2024-01-11T01:15:08;22.20;;;10.35;;
45388;SDS011;31127;52.078;4.370;2024-01-11T01:20:04;24.25;;;11.65;;
45388;SDS011;31127;52.078;4.370;2024-01-11T01:24:59;23.20;;;11.02;;
45388;SDS011;31127;52.078;4.370;2024-01-11T01:29:55;26.42;;;11.32;;
45388;SDS011;31127;52.078;4.370;2024-01-11T01:34:51;22.92;;;10.65;;
45388;SDS011;31127;52.078;4.370;2024-01-11T01:39:46;25.40;;;11.93;;
45388;SDS011;31127;52.078;4.370;2024-01-11T01:44:42;28.52;;;12.30;;
45388;SDS011;31127;52.078;4.370;2024-01-11T01:49:40;24.48;;;10.60;;
45388;SDS011;31127;52.078;4.370;2024-01-11T01:54:36;23.98;;;10.63;;
45388;SDS011;31127;52.078;4.370;2024-01-11T01:59:34;27.00;;;11.15;;
45388;SDS011;31127;52.078;4.370;2024-01-11T02:04:30;24.90;;;11.85;;
45388;SDS011;31127;52.078;4.370;2024-01-11T02:09:26;22.85;;;11.38;;
45388;SDS011;31127;52.078;4.370;2024-01-11T02:14:21;23.80;;;10.98;;
45388;SDS011;31127;52.078;4.370;2024-01-11T02:19:17;27.17;;;11.35;;
45388;SDS011;31127;52.078;4.370;2024-01-11T02:24:14;24.10;;;11.43;;
45388;SDS011;31127;52.078;4.370;2024-01-11T02:29:09;25.20;;;11.90;;
45388;SDS011;31127;52.078;4.370;2024-01-11T02:34:27;27.33;;;12.73;;
45388;SDS011;31127;52.078;4.370;2024-01-11T02:39:27;26.02;;;12.85;;
45388;SDS011;31127;52.078;4.370;2024-01-11T02:44:43;26.15;;;11.57;;
45388;SDS011;31127;52.078;4.370;2024-01-11T02:49:42;31.55;;;13.50;;
45388;SDS011;31127;52.078;4.370;2024-01-11T02:54:37;27.02;;;12.95;;
45388;SDS011;31127;52.078;4.370;2024-01-11T02:59:33;26.98;;;12.55;;
45388;SDS011;31127;52.078;4.370;2024-01-11T03:04:29;28.42;;;12.57;;
45388;SDS011;31127;52.078;4.370;2024-01-11T03:09:25;37.45;;;14.63;;
45388;SDS011;31127;52.078;4.370;2024-01-11T03:14:20;31.92;;;13.20;;
45388;SDS011;31127;52.078;4.370;2024-01-11T03:19:16;34.00;;;14.77;;
45388;SDS011;31127;52.078;4.370;2024-01-11T03:24:12;29.73;;;13.40;;
45388;SDS011;31127;52.078;4.370;2024-01-11T03:29:08;27.95;;;13.02;;
45388;SDS011;31127;52.078;4.370;2024-01-11T03:34:04;28.48;;;13.32;;
45388;SDS011;31127;52.078;4.370;2024-01-11T03:39:00;30.77;;;13.75;;
45388;SDS011;31127;52.078;4.370;2024-01-11T03:43:55;28.30;;;13.63;;
45388;SDS011;31127;52.078;4.370;2024-01-11T03:49:11;27.90;;;13.35;;
45388;SDS011;31127;52.078;4.370;2024-01-11T03:54:26;29.90;;;13.95;;
45388;SDS011;31127;52.078;4.370;2024-01-11T03:59:42;31.85;;;15.02;;
45388;SDS011;31127;52.078;4.370;2024-01-11T04:04:59;30.73;;;14.60;;
45388;SDS011;31127;52.078;4.370;2024-01-11T04:09:55;28.85;;;14.88;;
45388;SDS011;31127;52.078;4.370;2024-01-11T04:14:50;33.78;;;15.65;;
45388;SDS011;31127;52.078;4.370;2024-01-11T04:20:06;39.95;;;15.68;;
45388;SDS011;31127;52.078;4.370;2024-01-11T04:25:02;36.80;;;16.05;;
45388;SDS011;31127;52.078;4.370;2024-01-11T04:29:57;32.00;;;16.45;;
45388;SDS011;31127;52.078;4.370;2024-01-11T04:34:53;33.88;;;15.93;;
45388;SDS011;31127;52.078;4.370;2024-01-11T04:39:49;36.13;;;16.33;;
45388;SDS011;31127;52.078;4.370;2024-01-11T04:44:45;34.35;;;16.42;;
45388;SDS011;31127;52.078;4.370;2024-01-11T04:49:40;42.40;;;17.55;;
45388;SDS011;31127;52.078;4.370;2024-01-11T04:54:36;38.13;;;17.77;;
45388;SDS011;31127;52.078;4.370;2024-01-11T04:59:51;41.38;;;18.45;;
45388;SDS011;31127;52.078;4.370;2024-01-11T05:04:48;41.78;;;19.58;;
45388;SDS011;31127;52.078;4.370;2024-01-11T05:09:44;40.55;;;19.73;;
45388;SDS011;31127;52.078;4.370;2024-01-11T05:14:39;43.65;;;20.95;;
45388;SDS011;31127;52.078;4.370;2024-01-11T05:19:35;45.58;;;20.48;;
45388;SDS011;31127;52.078;4.370;2024-01-11T05:24:30;40.90;;;19.75;;
45388;SDS011;31127;52.078;4.370;2024-01-11T05:29:26;49.38;;;20.23;;
45388;SDS011;31127;52.078;4.370;2024-01-11T05:34:21;47.45;;;21.77;;
45388;SDS011;31127;52.078;4.370;2024-01-11T05:39:17;52.17;;;21.95;;
45388;SDS011;31127;52.078;4.370;2024-01-11T05:44:32;45.45;;;22.77;;
45388;SDS011;31127;52.078;4.370;2024-01-11T05:49:28;51.42;;;23.27;;
45388;SDS011;31127;52.078;4.370;2024-01-11T05:54:24;48.65;;;22.80;;
45388;SDS011;31127;52.078;4.370;2024-01-11T05:59:21;50.75;;;23.40;;
45388;SDS011;31127;52.078;4.370;2024-01-11T06:04:20;54.33;;;24.15;;
45388;SDS011;31127;52.078;4.370;2024-01-11T06:09:16;63.20;;;26.23;;
45388;SDS011;31127;52.078;4.370;2024-01-11T06:14:12;55.90;;;25.02;;
45388;SDS011;31127;52.078;4.370;2024-01-11T06:19:27;53.28;;;25.27;;
45388;SDS011;31127;52.078;4.370;2024-01-11T06:24:43;61.75;;;25.95;;
45388;SDS011;31127;52.078;4.370;2024-01-11T06:30:01;57.10;;;26.38;;
45388;SDS011;31127;52.078;4.370;2024-01-11T06:35:17;58.90;;;25.67;;
45388;SDS011;31127;52.078;4.370;2024-01-11T06:40:13;57.35;;;25.65;;
45388;SDS011;31127;52.078;4.370;2024-01-11T06:45:08;55.03;;;25.25;;
45388;SDS011;31127;52.078;4.370;2024-01-11T06:50:24;55.85;;;26.17;;
45388;SDS011;31127;52.078;4.370;2024-01-11T06:55:20;64.65;;;28.33;;
45388;SDS011;31127;52.078;4.370;2024-01-11T07:00:35;62.88;;;29.20;;
45388;SDS011;31127;52.078;4.370;2024-01-11T07:05:30;57.00;;;26.42;;
45388;SDS011;31127;52.078;4.370;2024-01-11T07:10:26;59.92;;;27.48;;
45388;SDS011;31127;52.078;4.370;2024-01-11T07:15:22;57.60;;;26.60;;
45388;SDS011;31127;52.078;4.370;2024-01-11T07:20:19;58.03;;;27.38;;
45388;SDS011;31127;52.078;4.370;2024-01-11T07:25:35;63.28;;;26.88;;
45388;SDS011;31127;52.078;4.370;2024-01-11T07:30:30;67.00;;;29.60;;
45388;SDS011;31127;52.078;4.370;2024-01-11T07:35:26;63.33;;;27.88;;
45388;SDS011;31127;52.078;4.370;2024-01-11T07:40:21;62.17;;;27.88;;
45388;SDS011;31127;52.078;4.370;2024-01-11T07:45:37;57.20;;;28.88;;
45388;SDS011;31127;52.078;4.370;2024-01-11T07:50:37;68.07;;;30.23;;
45388;SDS011;31127;52.078;4.370;2024-01-11T07:55:53;62.22;;;29.85;;
45388;SDS011;31127;52.078;4.370;2024-01-11T08:00:51;67.68;;;31.33;;
45388;SDS011;31127;52.078;4.370;2024-01-11T08:11:09;63.65;;;27.23;;
45388;SDS011;31127;52.078;4.370;2024-01-11T08:16:27;63.00;;;29.60;;
45388;SDS011;31127;52.078;4.370;2024-01-11T08:21:43;64.05;;;31.02;;
45388;SDS011;31127;52.078;4.370;2024-01-11T08:26:38;66.70;;;28.95;;
45388;SDS011;31127;52.078;4.370;2024-01-11T08:31:34;70.20;;;30.35;;
45388;SDS011;31127;52.078;4.370;2024-01-11T08:36:31;68.57;;;32.38;;
45388;SDS011;31127;52.078;4.370;2024-01-11T08:41:28;74.28;;;32.13;;
45388;SDS011;31127;52.078;4.370;2024-01-11T08:46:27;65.18;;;30.80;;
45388;SDS011;31127;52.078;4.370;2024-01-11T08:51:22;64.18;;;30.23;;
45388;SDS011;31127;52.078;4.370;2024-01-11T08:56:18;64.65;;;31.55;;
45388;SDS011;31127;52.078;4.370;2024-01-11T09:01:16;64.60;;;30.02;;
45388;SDS011;31127;52.078;4.370;2024-01-11T09:06:13;66.47;;;30.00;;
45388;SDS011;31127;52.078;4.370;2024-01-11T09:11:28;66.53;;;31.60;;
45388;SDS011;31127;52.078;4.370;2024-01-11T09:16:24;64.95;;;31.75;;
45388;SDS011;31127;52.078;4.370;2024-01-11T09:21:20;71.40;;;31.45;;
45388;SDS011;31127;52.078;4.370;2024-01-11T09:26:15;64.00;;;30.02;;
45388;SDS011;31127;52.078;4.370;2024-01-11T09:31:11;62.15;;;29.75;;
45388;SDS011;31127;52.078;4.370;2024-01-11T09:36:07;58.42;;;29.55;;
45388;SDS011;31127;52.078;4.370;2024-01-11T09:41:07;68.47;;;30.83;;
45388;SDS011;31127;52.078;4.370;2024-01-11T09:46:03;56.72;;;27.92;;
45388;SDS011;31127;52.078;4.370;2024-01-11T09:51:19;67.45;;;33.22;;
45388;SDS011;31127;52.078;4.370;2024-01-11T09:56:15;56.03;;;28.52;;
45388;SDS011;31127;52.078;4.370;2024-01-11T10:01:11;56.30;;;26.90;;
45388;SDS011;31127;52.078;4.370;2024-01-11T10:06:08;54.15;;;27.13;;
45388;SDS011;31127;52.078;4.370;2024-01-11T10:11:04;50.95;;;24.67;;
45388;SDS011;31127;52.078;4.370;2024-01-11T10:16:07;48.60;;;24.20;;
45388;SDS011;31127;52.078;4.370;2024-01-11T10:21:03;51.50;;;24.73;;
45388;SDS011;31127;52.078;4.370;2024-01-11T10:25:59;45.83;;;23.83;;
45388;SDS011;31127;52.078;4.370;2024-01-11T10:30:54;41.97;;;22.10;;
45388;SDS011;31127;52.078;4.370;2024-01-11T10:35:50;44.08;;;22.25;;
45388;SDS011;31127;52.078;4.370;2024-01-11T10:40:46;44.30;;;22.65;;
45388;SDS011;31127;52.078;4.370;2024-01-11T10:45:45;43.63;;;23.30;;
45388;SDS011;31127;52.078;4.370;2024-01-11T10:51:04;38.95;;;21.33;;
45388;SDS011;31127;52.078;4.370;2024-01-11T10:56:01;35.85;;;18.95;;
45388;SDS011;31127;52.078;4.370;2024-01-11T11:00:59;36.97;;;19.35;;
45388;SDS011;31127;52.078;4.370;2024-01-11T11:06:04;38.50;;;19.60;;
45388;SDS011;31127;52.078;4.370;2024-01-11T11:11:20;33.60;;;17.73;;
45388;SDS011;31127;52.078;4.370;2024-01-11T11:16:16;36.78;;;19.52;;
45388;SDS011;31127;52.078;4.370;2024-01-11T11:21:11;32.05;;;18.20;;
45388;SDS011;31127;52.078;4.370;2024-01-11T11:26:07;28.55;;;16.50;;
45388;SDS011;31127;52.078;4.370;2024-01-11T11:31:41;30.67;;;16.85;;
45388;SDS011;31127;52.078;4.370;2024-01-11T11:36:57;26.48;;;16.08;;
45388;SDS011;31127;52.078;4.370;2024-01-11T11:41:53;30.38;;;17.00;;
45388;SDS011;31127;52.078;4.370;2024-01-11T11:46:57;26.65;;;16.02;;
45388;SDS011;31127;52.078;4.370;2024-01-11T11:52:28;44.08;;;23.58;;
45388;SDS011;31127;52.078;4.370;2024-01-11T11:57:24;25.63;;;14.68;;
45388;SDS011;31127;52.078;4.370;2024-01-11T12:02:23;29.45;;;12.77;;
45388;SDS011;31127;52.078;4.370;2024-01-11T12:07:20;20.67;;;11.95;;
45388;SDS011;31127;52.078;4.370;2024-01-11T12:12:39;21.05;;;12.18;;
45388;SDS011;31127;52.078;4.370;2024-01-11T12:17:34;23.05;;;11.82;;
45388;SDS011;31127;52.078;4.370;2024-01-11T12:22:30;23.63;;;11.73;;
45388;SDS011;31127;52.078;4.370;2024-01-11T12:27:53;23.23;;;12.00;;
45388;SDS011;31127;52.078;4.370;2024-01-11T12:33:09;21.80;;;12.02;;
45388;SDS011;31127;52.078;4.370;2024-01-11T12:38:05;22.10;;;12.95;;
45388;SDS011;31127;52.078;4.370;2024-01-11T12:43:01;25.05;;;13.98;;
45388;SDS011;31127;52.078;4.370;2024-01-11T12:47:57;24.30;;;13.18;;
45388;SDS011;31127;52.078;4.370;2024-01-11T12:53:12;22.27;;;13.65;;
45388;SDS011;31127;52.078;4.370;2024-01-11T12:58:13;20.48;;;12.02;;
45388;SDS011;31127;52.078;4.370;2024-01-11T13:03:10;24.65;;;13.77;;
45388;SDS011;31127;52.078;4.370;2024-01-11T13:08:08;23.20;;;12.60;;
45388;SDS011;31127;52.078;4.370;2024-01-11T13:13:04;25.27;;;13.82;;
45388;SDS011;31127;52.078;4.370;2024-01-11T13:18:00;27.33;;;14.95;;
45388;SDS011;31127;52.078;4.370;2024-01-11T13:23:15;20.60;;;12.88;;
45388;SDS011;31127;52.078;4.370;2024-01-11T13:28:33;24.65;;;13.30;;
45388;SDS011;31127;52.078;4.370;2024-01-11T13:33:29;25.20;;;13.02;;
45388;SDS011;31127;52.078;4.370;2024-01-11T13:38:25;24.27;;;14.05;;
45388;SDS011;31127;52.078;4.370;2024-01-11T13:43:41;31.88;;;14.32;;
45388;SDS011;31127;52.078;4.370;2024-01-11T13:48:37;44.55;;;24.88;;
45388;SDS011;31127;52.078;4.370;2024-01-11T13:53:33;23.58;;;14.05;;
45388;SDS011;31127;52.078;4.370;2024-01-11T13:58:29;25.98;;;14.75;;
45388;SDS011;31127;52.078;4.370;2024-01-11T14:03:24;25.38;;;14.98;;
45388;SDS011;31127;52.078;4.370;2024-01-11T14:08:20;24.35;;;14.07;;
45388;SDS011;31127;52.078;4.370;2024-01-11T14:13:36;25.73;;;14.55;;
45388;SDS011;31127;52.078;4.370;2024-01-11T14:18:31;26.63;;;15.00;;
45388;SDS011;31127;52.078;4.370;2024-01-11T14:23:27;21.55;;;13.48;;
45388;SDS011;31127;52.078;4.370;2024-01-11T14:28:22;26.35;;;14.50;;
45388;SDS011;31127;52.078;4.370;2024-01-11T14:33:18;25.00;;;14.77;;
45388;SDS011;31127;52.078;4.370;2024-01-11T14:38:15;24.20;;;13.70;;
45388;SDS011;31127;52.078;4.370;2024-01-11T14:43:10;26.02;;;15.25;;
45388;SDS011;31127;52.078;4.370;2024-01-11T14:48:06;25.85;;;14.18;;
45388;SDS011;31127;52.078;4.370;2024-01-11T14:53:01;25.70;;;13.63;;
45388;SDS011;31127;52.078;4.370;2024-01-11T14:57:58;29.48;;;14.45;;
45388;SDS011;31127;52.078;4.370;2024-01-11T15:02:54;29.73;;;15.15;;
45388;SDS011;31127;52.078;4.370;2024-01-11T15:07:49;23.05;;;13.98;;
45388;SDS011;31127;52.078;4.370;2024-01-11T15:12:45;25.88;;;14.45;;
45388;SDS011;31127;52.078;4.370;2024-01-11T15:18:01;28.98;;;15.25;;
45388;SDS011;31127;52.078;4.370;2024-01-11T15:22:56;30.35;;;16.10;;
45388;SDS011;31127;52.078;4.370;2024-01-11T15:27:53;27.02;;;14.68;;
45388;SDS011;31127;52.078;4.370;2024-01-11T15:32:49;31.92;;;15.75;;
45388;SDS011;31127;52.078;4.370;2024-01-11T15:37:45;25.10;;;14.50;;
45388;SDS011;31127;52.078;4.370;2024-01-11T15:42:41;26.40;;;14.93;;
45388;SDS011;31127;52.078;4.370;2024-01-11T15:47:37;26.92;;;14.43;;
45388;SDS011;31127;52.078;4.370;2024-01-11T15:52:34;27.63;;;16.63;;
45388;SDS011;31127;52.078;4.370;2024-01-11T15:57:30;26.95;;;15.55;;
45388;SDS011;31127;52.078;4.370;2024-01-11T16:02:25;29.17;;;15.77;;
45388;SDS011;31127;52.078;4.370;2024-01-11T16:07:21;32.97;;;16.63;;
45388;SDS011;31127;52.078;4.370;2024-01-11T16:12:37;32.17;;;16.63;;
45388;SDS011;31127;52.078;4.370;2024-01-11T16:17:32;27.63;;;16.05;;
45388;SDS011;31127;52.078;4.370;2024-01-11T16:22:28;25.85;;;15.50;;
45388;SDS011;31127;52.078;4.370;2024-01-11T16:27:23;31.75;;;17.33;;
45388;SDS011;31127;52.078;4.370;2024-01-11T16:32:19;32.30;;;18.00;;
45388;SDS011;31127;52.078;4.370;2024-01-11T16:37:15;36.45;;;17.65;;
45388;SDS011;31127;52.078;4.370;2024-01-11T16:42:11;34.42;;;19.25;;
45388;SDS011;31127;52.078;4.370;2024-01-11T16:47:06;36.10;;;16.40;;
45388;SDS011;31127;52.078;4.370;2024-01-11T16:52:02;37.47;;;16.27;;
45388;SDS011;31127;52.078;4.370;2024-01-11T16:56:59;46.40;;;13.27;;
45388;SDS011;31127;52.078;4.370;2024-01-11T17:01:55;32.70;;;10.02;;
45388;SDS011;31127;52.078;4.370;2024-01-11T17:06:51;29.95;;;7.43;;
45388;SDS011;31127;52.078;4.370;2024-01-11T17:12:06;35.65;;;7.32;;
45388;SDS011;31127;52.078;4.370;2024-01-11T17:17:02;34.72;;;6.35;;
45388;SDS011;31127;52.078;4.370;2024-01-11T17:22:00;28.52;;;5.47;;
45388;SDS011;31127;52.078;4.370;2024-01-11T17:26:57;34.35;;;5.13;;
45388;SDS011;31127;52.078;4.370;2024-01-11T17:31:59;38.33;;;5.93;;
45388;SDS011;31127;52.078;4.370;2024-01-11T17:36:54;31.88;;;5.53;;
45388;SDS011;31127;52.078;4.370;2024-01-11T17:41:50;34.90;;;5.78;;
45388;SDS011;31127;52.078;4.370;2024-01-11T17:47:11;30.33;;;5.45;;
45388;SDS011;31127;52.078;4.370;2024-01-11T17:52:08;29.40;;;5.47;;
45388;SDS011;31127;52.078;4.370;2024-01-11T17:57:03;26.55;;;4.95;;
45388;SDS011;31127;52.078;4.370;2024-01-11T18:01:59;37.35;;;6.88;;
45388;SDS011;31127;52.078;4.370;2024-01-11T18:06:55;34.40;;;5.75;;
45388;SDS011;31127;52.078;4.370;2024-01-11T18:11:51;44.92;;;8.27;;
45388;SDS011;31127;52.078;4.370;2024-01-11T18:16:50;28.60;;;5.50;;
45388;SDS011;31127;52.078;4.370;2024-01-11T18:22:06;25.95;;;4.85;;
45388;SDS011;31127;52.078;4.370;2024-01-11T18:27:04;32.70;;;7.00;;
45388;SDS011;31127;52.078;4.370;2024-01-11T18:32:03;30.98;;;6.63;;
45388;SDS011;31127;52.078;4.370;2024-01-11T18:36:59;36.63;;;6.50;;
45388;SDS011;31127;52.078;4.370;2024-01-11T18:41:55;40.97;;;6.80;;
45388;SDS011;31127;52.078;4.370;2024-01-11T18:46:53;39.63;;;6.65;;
45388;SDS011;31127;52.078;4.370;2024-01-11T18:51:50;25.88;;;5.88;;
45388;SDS011;31127;52.078;4.370;2024-01-11T18:56:48;34.80;;;6.85;;
45388;SDS011;31127;52.078;4.370;2024-01-11T19:01:46;31.38;;;7.32;;
45388;SDS011;31127;52.078;4.370;2024-01-11T19:06:42;28.45;;;6.38;;
45388;SDS011;31127;52.078;4.370;2024-01-11T19:11:41;25.33;;;6.35;;
45388;SDS011;31127;52.078;4.370;2024-01-11T19:16:36;34.72;;;6.43;;
45388;SDS011;31127;52.078;4.370;2024-01-11T19:21:32;34.28;;;7.97;;
45388;SDS011;31127;52.078;4.370;2024-01-11T19:26:27;30.52;;;5.65;;
45388;SDS011;31127;52.078;4.370;2024-01-11T19:31:23;47.58;;;6.57;;
45388;SDS011;31127;52.078;4.370;2024-01-11T19:36:19;31.20;;;6.13;;
45388;SDS011;31127;52.078;4.370;2024-01-11T19:41:35;38.35;;;5.95;;
45388;SDS011;31127;52.078;4.370;2024-01-11T19:46:31;31.13;;;5.50;;
45388;SDS011;31127;52.078;4.370;2024-01-11T19:51:34;42.72;;;6.78;;
45388;SDS011;31127;52.078;4.370;2024-01-11T19:56:30;40.53;;;6.50;;
45388;SDS011;31127;52.078;4.370;2024-01-11T20:01:27;33.92;;;6.30;;
45388;SDS011;31127;52.078;4.370;2024-01-11T20:06:23;37.45;;;6.10;;
45388;SDS011;31127;52.078;4.370;2024-01-11T20:11:19;36.65;;;7.15;;
45388;SDS011;31127;52.078;4.370;2024-01-11T20:16:36;37.50;;;5.93;;
45388;SDS011;31127;52.078;4.370;2024-01-11T20:21:31;46.22;;;12.05;;
45388;SDS011;31127;52.078;4.370;2024-01-11T20:26:47;37.38;;;6.40;;
45388;SDS011;31127;52.078;4.370;2024-01-11T20:31:43;36.75;;;5.18;;
45388;SDS011;31127;52.078;4.370;2024-01-11T20:36:39;41.70;;;6.85;;
45388;SDS011;31127;52.078;4.370;2024-01-11T20:41:35;39.97;;;5.57;;
45388;SDS011;31127;52.078;4.370;2024-01-11T20:51:33;25.60;;;4.90;;
45388;SDS011;31127;52.078;4.370;2024-01-11T20:56:29;28.05;;;5.85;;
45388;SDS011;31127;52.078;4.370;2024-01-11T21:01:27;42.72;;;5.90;;
45388;SDS011;31127;52.078;4.370;2024-01-11T21:06:23;24.65;;;5.20;;
45388;SDS011;31127;52.078;4.370;2024-01-11T21:11:18;55.17;;;21.95;;
45388;SDS011;31127;52.078;4.370;2024-01-11T21:16:16;22.80;;;5.57;;
45388;SDS011;31127;52.078;4.370;2024-01-11T21:21:11;32.05;;;6.25;;
45388;SDS011;31127;52.078;4.370;2024-01-11T21:26:07;30.45;;;7.20;;
45388;SDS011;31127;52.078;4.370;2024-01-11T21:31:03;36.97;;;7.38;;
45388;SDS011;31127;52.078;4.370;2024-01-11T21:35:59;30.60;;;6.13;;
45388;SDS011;31127;52.078;4.370;2024-01-11T21:40:55;35.28;;;6.53;;
45388;SDS011;31127;52.078;4.370;2024-01-11T21:45:50;32.53;;;5.95;;
45388;SDS011;31127;52.078;4.370;2024-01-11T21:50:45;35.60;;;8.30;;
45388;SDS011;31127;52.078;4.370;2024-01-11T21:55:41;33.72;;;6.80;;
45388;SDS011;31127;52.078;4.370;2024-01-11T22:00:37;36.45;;;7.00;;
45388;SDS011;31127;52.078;4.370;2024-01-11T22:05:34;26.02;;;6.78;;
45388;SDS011;31127;52.078;4.370;2024-01-11T22:10:29;32.90;;;6.95;;
45388;SDS011;31127;52.078;4.370;2024-01-11T22:15:25;29.67;;;7.57;;
45388;SDS011;31127;52.078;4.370;2024-01-11T22:20:38;26.90;;;7.25;;
45388;SDS011;31127;52.078;4.370;2024-01-11T22:25:34;22.60;;;7.35;;
45388;SDS011;31127;52.078;4.370;2024-01-11T22:30:32;37.03;;;6.53;;
45388;SDS011;31127;52.078;4.370;2024-01-11T22:35:54;27.45;;;6.80;;
45388;SDS011;31127;52.078;4.370;2024-01-11T22:40:50;30.33;;;6.38;;
45388;SDS011;31127;52.078;4.370;2024-01-11T22:45:45;26.92;;;6.15;;
45388;SDS011;31127;52.078;4.370;2024-01-11T22:50:41;29.40;;;6.00;;
45388;SDS011;31127;52.078;4.370;2024-01-11T22:55:36;29.80;;;6.22;;
45388;SDS011;31127;52.078;4.370;2024-01-11T23:00:32;36.40;;;6.15;;
45388;SDS011;31127;52.078;4.370;2024-01-11T23:05:48;30.30;;;5.63;;
45388;SDS011;31127;52.078;4.370;2024-01-11T23:10:43;31.90;;;6.28;;
45388;SDS011;31127;52.078;4.370;2024-01-11T23:15:39;40.08;;;7.32;;
45388;SDS011;31127;52.078;4.370;2024-01-11T23:20:34;23.02;;;5.63;;
45388;SDS011;31127;52.078;4.370;2024-01-11T23:25:30;38.63;;;6.05;;
45388;SDS011;31127;52.078;4.370;2024-01-11T23:30:27;30.83;;;6.55;;
45388;SDS011;31127;52.078;4.370;2024-01-11T23:35:23;28.88;;;5.40;;
45388;SDS011;31127;52.078;4.370;2024-01-11T23:40:18;36.65;;;5.65;;
45388;SDS011;31127;52.078;4.370;2024-01-11T23:45:14;34.17;;;5.70;;
45388;SDS011;31127;52.078;4.370;2024-01-11T23:50:09;28.30;;;6.07;;
45388;SDS011;31127;52.078;4.370;2024-01-11T23:55:08;34.78;;;5.85;;
